sensor_id;sensor_type;location;lat;lon;timestamp;pressure;altitude;pressure_sealevel;temperature;humidity
36190;BME280;22232;50.914;13.858;2022-12-07T00:01:33;97534.28;;;0.93;100.00
36190;BME280;22232;50.914;13.858;2022-12-07T00:04:02;97527.75;;;0.88;100.00
36190;BME280;22232;50.914;13.858;2022-12-07T00:06:36;97537.25;;;0.89;100.00
36190;BME280;22232;50.914;13.858;2022-12-07T00:09:05;97524.94;;;0.90;100.00
36190;BME280;22232;50.914;13.858;2022-12-07T00:11:33;97529.53;;;0.88;100.00
36190;BME280;22232;50.914;13.858;2022-12-07T00:14:04;97537.41;;;0.88;100.00
36190;BME280;22232;50.914;13.858;2022-12-07T00:16:33;97525.47;;;0.85;100.00
36190;BME280;22232;50.914;13.858;2022-12-07T00:19:02;97522.50;;;0.88;100.00
36190;BME280;22232;50.914;13.858;2022-12-07T00:21:32;97521.84;;;0.86;100.00
36190;BME280;22232;50.914;13.858;2022-12-07T00:24:01;97526.34;;;0.78;100.00
36190;BME280;22232;50.914;13.858;2022-12-07T00:26:31;97522.66;;;0.87;100.00
36190;BME280;22232;50.914;13.858;2022-12-07T00:29:03;97527.75;;;0.88;100.00
36190;BME280;22232;50.914;13.858;2022-12-07T00:31:33;97523.47;;;0.87;100.00
36190;BME280;22232;50.914;13.858;2022-12-07T00:34:02;97512.81;;;0.89;100.00
36190;BME280;22232;50.914;13.858;2022-12-07T00:36:30;97519.22;;;0.86;100.00
36190;BME280;22232;50.914;13.858;2022-12-07T00:38:58;97518.41;;;0.86;100.00
36190;BME280;22232;50.914;13.858;2022-12-07T00:41:28;97511.34;;;0.86;100.00
36190;BME280;22232;50.914;13.858;2022-12-07T00:43:55;97511.16;;;0.88;100.00
36190;BME280;22232;50.914;13.858;2022-12-07T00:46:24;97511.50;;;0.85;100.00
36190;BME280;22232;50.914;13.858;2022-12-07T00:48:53;97510.91;;;0.83;100.00
36190;BME280;22232;50.914;13.858;2022-12-07T00:51:23;97508.28;;;0.83;100.00
36190;BME280;22232;50.914;13.858;2022-12-07T00:53:51;97512.88;;;0.81;100.00
36190;BME280;22232;50.914;13.858;2022-12-07T00:56:22;97505.81;;;0.81;100.00
36190;BME280;22232;50.914;13.858;2022-12-07T00:58:55;97510.91;;;0.83;100.00
36190;BME280;22232;50.914;13.858;2022-12-07T01:01:24;97504.34;;;0.79;100.00
36190;BME280;22232;50.914;13.858;2022-12-07T01:03:53;97512.06;;;0.80;100.00
36190;BME280;22232;50.914;13.858;2022-12-07T01:06:21;97505.19;;;0.79;100.00
36190;BME280;22232;50.914;13.858;2022-12-07T01:08:49;97498.75;;;0.82;100.00
36190;BME280;22232;50.914;13.858;2022-12-07T01:11:19;97504.84;;;0.82;100.00
36190;BME280;22232;50.914;13.858;2022-12-07T01:13:49;97506.91;;;0.87;100.00
36190;BME280;22232;50.914;13.858;2022-12-07T01:16:19;97497.06;;;0.89;100.00
36190;BME280;22232;50.914;13.858;2022-12-07T01:18:49;97507.38;;;0.90;100.00
36190;BME280;22232;50.914;13.858;2022-12-07T01:21:23;97504.59;;;0.92;100.00
36190;BME280;22232;50.914;13.858;2022-12-07T01:23:51;97503.13;;;0.89;100.00
36190;BME280;22232;50.914;13.858;2022-12-07T01:26:23;97509.72;;;0.85;100.00
36190;BME280;22232;50.914;13.858;2022-12-07T01:28:51;97497.41;;;0.86;100.00
36190;BME280;22232;50.914;13.858;2022-12-07T01:31:23;97493.13;;;0.85;100.00
36190;BME280;22232;50.914;13.858;2022-12-07T01:33:54;97499.03;;;0.87;100.00
36190;BME280;22232;50.914;13.858;2022-12-07T01:36:31;97499.03;;;0.87;100.00
36190;BME280;22232;50.914;13.858;2022-12-07T01:39:02;97497.22;;;0.87;100.00
36190;BME280;22232;50.914;13.858;2022-12-07T01:41:33;97497.56;;;0.84;100.00
36190;BME280;22232;50.914;13.858;2022-12-07T01:46:56;97494.50;;;0.81;100.00
36190;BME280;22232;50.914;13.858;2022-12-07T01:49:45;97497.31;;;0.79;100.00
36190;BME280;22232;50.914;13.858;2022-12-07T01:52:20;97497.31;;;0.79;100.00
36190;BME280;22232;50.914;13.858;2022-12-07T01:54:53;97501.09;;;0.77;100.00
36190;BME280;22232;50.914;13.858;2022-12-07T01:57:22;97495.03;;;0.76;100.00
36190;BME280;22232;50.914;13.858;2022-12-07T01:59:51;97493.38;;;0.75;100.00
36190;BME280;22232;50.914;13.858;2022-12-07T02:02:24;97495.84;;;0.77;100.00
36190;BME280;22232;50.914;13.858;2022-12-07T02:04:53;97486.50;;;0.74;100.00
36190;BME280;22232;50.914;13.858;2022-12-07T02:07:23;97495.03;;;0.76;100.00
36190;BME280;22232;50.914;13.858;2022-12-07T02:09:51;97489.13;;;0.74;100.00
36190;BME280;22232;50.914;13.858;2022-12-07T02:12:19;97491.56;;;0.76;100.00
36190;BME280;22232;50.914;13.858;2022-12-07T02:14:48;97488.31;;;0.74;100.00
36190;BME280;22232;50.914;13.858;2022-12-07T02:17:41;97485.00;;;0.80;100.00
36190;BME280;22232;50.914;13.858;2022-12-07T02:26:02;97477.16;;;0.72;100.00
36190;BME280;22232;50.914;13.858;2022-12-07T02:28:36;97474.25;;;0.66;100.00
36190;BME280;22232;50.914;13.858;2022-12-07T02:31:11;97481.00;;;0.61;100.00
36190;BME280;22232;50.914;13.858;2022-12-07T02:33:47;97484.19;;;0.56;100.00
36190;BME280;22232;50.914;13.858;2022-12-07T02:36:30;97482.91;;;0.52;100.00
36190;BME280;22232;50.914;13.858;2022-12-07T02:39:04;97481.59;;;0.48;100.00
36190;BME280;22232;50.914;13.858;2022-12-07T02:41:51;97489.13;;;0.51;100.00
36190;BME280;22232;50.914;13.858;2022-12-07T02:44:24;97479.28;;;0.53;100.00
36190;BME280;22232;50.914;13.858;2022-12-07T02:46:55;97477.31;;;0.55;100.00
36190;BME280;22232;50.914;13.858;2022-12-07T02:49:26;97472.88;;;0.56;100.00
36190;BME280;22232;50.914;13.858;2022-12-07T02:51:54;97480.91;;;0.54;100.00
36190;BME280;22232;50.914;13.858;2022-12-07T02:54:22;97459.56;;;0.57;100.00
36190;BME280;22232;50.914;13.858;2022-12-07T03:03:09;97449.34;;;0.62;100.00
36190;BME280;22232;50.914;13.858;2022-12-07T03:06:05;97457.59;;;0.59;100.00
36190;BME280;22232;50.914;13.858;2022-12-07T03:11:45;97448.25;;;0.57;100.00
36190;BME280;22232;50.914;13.858;2022-12-07T03:14:24;97444.16;;;0.54;100.00
36190;BME280;22232;50.914;13.858;2022-12-07T03:17:14;97442.53;;;0.53;100.00
36190;BME280;22232;50.914;13.858;2022-12-07T03:19:46;97441.91;;;0.51;100.00
36190;BME280;22232;50.914;13.858;2022-12-07T03:22:16;97438.16;;;0.45;100.00
36190;BME280;22232;50.914;13.858;2022-12-07T03:24:51;97436.38;;;0.46;100.00
36190;BME280;22232;50.914;13.858;2022-12-07T03:27:22;97433.41;;;0.49;100.00
36190;BME280;22232;50.914;13.858;2022-12-07T03:29:57;97426.97;;;0.52;100.00
36190;BME280;22232;50.914;13.858;2022-12-07T03:35:09;97424.41;;;0.43;100.00
36190;BME280;22232;50.914;13.858;2022-12-07T03:37:45;97423.41;;;0.44;100.00
36190;BME280;22232;50.914;13.858;2022-12-07T03:42:52;97420.78;;;0.44;100.00
36190;BME280;22232;50.914;13.858;2022-12-07T03:45:24;97416.91;;;0.40;100.00
36190;BME280;22232;50.914;13.858;2022-12-07T03:48:16;97417.16;;;0.31;100.00
36190;BME280;22232;50.914;13.858;2022-12-07T03:51:06;97418.75;;;0.32;100.00
36190;BME280;22232;50.914;13.858;2022-12-07T03:53:44;97419.47;;;0.26;100.00
36190;BME280;22232;50.914;13.858;2022-12-07T03:56:14;97423.44;;;0.21;100.00
36190;BME280;22232;50.914;13.858;2022-12-07T03:58:42;97423.25;;;0.23;100.00
36190;BME280;22232;50.914;13.858;2022-12-07T04:01:11;97423.44;;;0.21;100.00
36190;BME280;22232;50.914;13.858;2022-12-07T04:03:38;97420.97;;;0.20;100.00
36190;BME280;22232;50.914;13.858;2022-12-07T04:06:06;97421.88;;;0.12;100.00
36190;BME280;22232;50.914;13.858;2022-12-07T04:08:33;97413.50;;;0.09;100.00
36190;BME280;22232;50.914;13.858;2022-12-07T04:11:01;97420.06;;;0.13;100.00
36190;BME280;22232;50.914;13.858;2022-12-07T04:13:29;97409.22;;;0.16;100.00
36190;BME280;22232;50.914;13.858;2022-12-07T04:15:56;97410.03;;;0.16;100.00
36190;BME280;22232;50.914;13.858;2022-12-07T04:18:24;97400.59;;;0.07;100.00
36190;BME280;22232;50.914;13.858;2022-12-07T04:20:52;97400.88;;;0.12;100.00
36190;BME280;22232;50.914;13.858;2022-12-07T04:23:19;97397.41;;;0.12;100.00
36190;BME280;22232;50.914;13.858;2022-12-07T04:25:48;97393.63;;;0.14;100.00
36190;BME280;22232;50.914;13.858;2022-12-07T04:28:16;97386.13;;;0.11;100.00
36190;BME280;22232;50.914;13.858;2022-12-07T04:30:45;97394.34;;;0.08;100.00
36190;BME280;22232;50.914;13.858;2022-12-07T04:33:12;97390.91;;;0.08;100.00
36190;BME280;22232;50.914;13.858;2022-12-07T04:35:42;97391.09;;;0.06;100.00
36190;BME280;22232;50.914;13.858;2022-12-07T04:38:09;97390.25;;;0.06;100.00
36190;BME280;22232;50.914;13.858;2022-12-07T04:40:37;97389.44;;;0.05;100.00
36190;BME280;22232;50.914;13.858;2022-12-07T04:43:04;97382.22;;;0.07;100.00
36190;BME280;22232;50.914;13.858;2022-12-07T04:45:32;97375.41;;;-0.02;100.00
36190;BME280;22232;50.914;13.858;2022-12-07T04:48:00;97376.06;;;0.00;100.00
36190;BME280;22232;50.914;13.858;2022-12-07T04:50:27;97369.84;;;-0.07;100.00
36190;BME280;22232;50.914;13.858;2022-12-07T04:52:55;97363.97;;;-0.09;100.00
36190;BME280;22232;50.914;13.858;2022-12-07T04:55:22;97372.53;;;-0.15;100.00
36190;BME280;22232;50.914;13.858;2022-12-07T04:57:50;97369.41;;;-0.11;100.00
36190;BME280;22232;50.914;13.858;2022-12-07T05:00:17;97360.59;;;-0.18;100.00
36190;BME280;22232;50.914;13.858;2022-12-07T05:02:45;97360.31;;;-0.23;100.00
36190;BME280;22232;50.914;13.858;2022-12-07T05:05:13;97345.22;;;-0.21;100.00
36190;BME280;22232;50.914;13.858;2022-12-07T05:07:40;97359.66;;;-0.25;100.00
36190;BME280;22232;50.914;13.858;2022-12-07T05:10:08;97343.81;;;-0.32;100.00
36190;BME280;22232;50.914;13.858;2022-12-07T05:12:36;97346.97;;;-0.36;100.00
36190;BME280;22232;50.914;13.858;2022-12-07T05:15:04;97349.75;;;-0.38;100.00
36190;BME280;22232;50.914;13.858;2022-12-07T05:21:44;97349.94;;;-0.39;100.00
36190;BME280;22232;50.914;13.858;2022-12-07T05:24:13;97346.00;;;-0.43;100.00
36190;BME280;22232;50.914;13.858;2022-12-07T05:26:42;97340.94;;;-0.45;100.00
36190;BME280;22232;50.914;13.858;2022-12-07T05:29:11;97338.31;;;-0.45;100.00
36190;BME280;22232;50.914;13.858;2022-12-07T05:31:39;97340.13;;;-0.45;100.00
36190;BME280;22232;50.914;13.858;2022-12-07T05:34:08;97327.84;;;-0.45;100.00
36190;BME280;22232;50.914;13.858;2022-12-07T05:36:36;97327.84;;;-0.45;100.00
36190;BME280;22232;50.914;13.858;2022-12-07T05:39:03;97327.84;;;-0.45;100.00
36190;BME280;22232;50.914;13.858;2022-12-07T05:41:31;97324.91;;;-0.50;100.00
36190;BME280;22232;50.914;13.858;2022-12-07T05:44:17;97323.41;;;-0.44;100.00
36190;BME280;22232;50.914;13.858;2022-12-07T05:46:45;97325.84;;;-0.43;100.00
36190;BME280;22232;50.914;13.858;2022-12-07T05:49:12;97312.75;;;-0.43;100.00
36190;BME280;22232;50.914;13.858;2022-12-07T05:51:40;97313.41;;;-0.41;100.00
36190;BME280;22232;50.914;13.858;2022-12-07T05:54:08;97305.16;;;-0.30;100.00
36190;BME280;22232;50.914;13.858;2022-12-07T05:56:35;97304.00;;;-0.27;100.00
36190;BME280;22232;50.914;13.858;2022-12-07T05:59:03;97301.19;;;-0.26;100.00
36190;BME280;22232;50.914;13.858;2022-12-07T06:01:52;97298.22;;;-0.22;100.00
36190;BME280;22232;50.914;13.858;2022-12-07T06:04:22;97297.22;;;-0.21;100.00
36190;BME280;22232;50.914;13.858;2022-12-07T06:06:49;97295.25;;;-0.19;100.00
36190;BME280;22232;50.914;13.858;2022-12-07T06:09:19;97299.69;;;-0.20;100.00
36190;BME280;22232;50.914;13.858;2022-12-07T06:11:46;97296.88;;;-0.18;100.00
36190;BME280;22232;50.914;13.858;2022-12-07T06:14:33;97289.19;;;-0.20;100.00
36190;BME280;22232;50.914;13.858;2022-12-07T06:17:01;97277.91;;;-0.20;100.00
36190;BME280;22232;50.914;13.858;2022-12-07T06:19:29;97287.31;;;-0.11;100.00
36190;BME280;22232;50.914;13.858;2022-12-07T06:21:57;97291.88;;;-0.05;100.00
36190;BME280;22232;50.914;13.858;2022-12-07T06:24:24;97281.03;;;-0.02;100.00
36190;BME280;22232;50.914;13.858;2022-12-07T06:26:52;97291.50;;;-0.02;100.00
36190;BME280;22232;50.914;13.858;2022-12-07T06:29:20;97283.75;;;0.05;100.00
36190;BME280;22232;50.914;13.858;2022-12-07T06:31:47;97282.13;;;0.04;100.00
36190;BME280;22232;50.914;13.858;2022-12-07T06:34:17;97281.47;;;0.02;100.00
36190;BME280;22232;50.914;13.858;2022-12-07T06:36:46;97282.94;;;0.04;100.00
36190;BME280;22232;50.914;13.858;2022-12-07T06:39:19;97286.66;;;0.10;100.00
36190;BME280;22232;50.914;13.858;2022-12-07T06:41:47;97285.97;;;0.16;100.00
36190;BME280;22232;50.914;13.858;2022-12-07T06:44:15;97288.22;;;0.19;100.00
36190;BME280;22232;50.914;13.858;2022-12-07T06:46:42;97286.22;;;0.21;100.00
36190;BME280;22232;50.914;13.858;2022-12-07T06:49:10;97286.72;;;0.25;100.00
36190;BME280;22232;50.914;13.858;2022-12-07T06:51:38;97281.72;;;0.30;100.00
36190;BME280;22232;50.914;13.858;2022-12-07T06:54:12;97285.00;;;0.32;100.00
36190;BME280;22232;50.914;13.858;2022-12-07T06:56:40;97292.97;;;0.38;100.00
36190;BME280;22232;50.914;13.858;2022-12-07T06:59:08;97294.22;;;0.42;100.00
36190;BME280;22232;50.914;13.858;2022-12-07T07:01:35;97289.16;;;0.41;100.00
36190;BME280;22232;50.914;13.858;2022-12-07T07:04:03;97282.09;;;0.41;100.00
36190;BME280;22232;50.914;13.858;2022-12-07T07:06:31;97284.00;;;0.48;100.00
36190;BME280;22232;50.914;13.858;2022-12-07T07:08:59;97282.03;;;0.50;100.00
36190;BME280;22232;50.914;13.858;2022-12-07T07:11:27;97281.59;;;0.46;100.00
36190;BME280;22232;50.914;13.858;2022-12-07T07:13:54;97279.78;;;0.47;100.00
36190;BME280;22232;50.914;13.858;2022-12-07T07:16:24;97281.84;;;0.51;100.00
36190;BME280;22232;50.914;13.858;2022-12-07T07:18:52;97278.31;;;0.59;100.00
36190;BME280;22232;50.914;13.858;2022-12-07T07:21:20;97286.00;;;0.60;100.00
36190;BME280;22232;50.914;13.858;2022-12-07T07:23:47;97282.41;;;0.61;100.00
36190;BME280;22232;50.914;13.858;2022-12-07T07:26:15;97286.28;;;0.65;100.00
36190;BME280;22232;50.914;13.858;2022-12-07T07:28:49;97288.91;;;0.65;100.00
36190;BME280;22232;50.914;13.858;2022-12-07T07:31:16;97285.28;;;0.66;100.00
36190;BME280;22232;50.914;13.858;2022-12-07T07:33:47;97289.06;;;0.64;100.00
36190;BME280;22232;50.914;13.858;2022-12-07T07:36:15;97286.38;;;0.57;100.00
36190;BME280;22232;50.914;13.858;2022-12-07T07:38:43;97303.28;;;0.55;100.00
36190;BME280;22232;50.914;13.858;2022-12-07T07:41:10;97296.06;;;0.57;100.00
36190;BME280;22232;50.914;13.858;2022-12-07T07:43:38;97295.16;;;0.50;100.00
36190;BME280;22232;50.914;13.858;2022-12-07T07:46:05;97305.91;;;0.55;100.00
36190;BME280;22232;50.914;13.858;2022-12-07T07:48:33;97302.31;;;0.56;100.00
36190;BME280;22232;50.914;13.858;2022-12-07T07:51:05;97308.38;;;0.56;100.00
36190;BME280;22232;50.914;13.858;2022-12-07T07:53:33;97310.53;;;0.53;100.00
36190;BME280;22232;50.914;13.858;2022-12-07T07:56:01;97310.09;;;0.49;100.00
36190;BME280;22232;50.914;13.858;2022-12-07T07:58:29;97308.88;;;0.52;100.00
36190;BME280;22232;50.914;13.858;2022-12-07T08:00:56;97302.91;;;0.58;100.00
36190;BME280;22232;50.914;13.858;2022-12-07T08:03:23;97307.66;;;0.62;100.00
36190;BME280;22232;50.914;13.858;2022-12-07T08:05:51;97316.06;;;0.73;100.00
36190;BME280;22232;50.914;13.858;2022-12-07T08:08:19;97318.59;;;0.81;100.00
36190;BME280;22232;50.914;13.858;2022-12-07T08:10:47;97321.50;;;0.86;100.00
36190;BME280;22232;50.914;13.858;2022-12-07T08:13:17;97315.63;;;0.99;100.00
36190;BME280;22232;50.914;13.858;2022-12-07T08:15:46;97328.81;;;0.90;100.00
36190;BME280;22232;50.914;13.858;2022-12-07T08:18:15;97333.28;;;0.90;100.00
36190;BME280;22232;50.914;13.858;2022-12-07T08:20:42;97326.50;;;0.96;100.00
36190;BME280;22232;50.914;13.858;2022-12-07T08:23:12;97331.19;;;1.00;100.00
36190;BME280;22232;50.914;13.858;2022-12-07T08:25:40;97328.81;;;1.05;100.00
36190;BME280;22232;50.914;13.858;2022-12-07T08:28:07;97332.47;;;1.04;100.00
36190;BME280;22232;50.914;13.858;2022-12-07T08:30:35;97325.84;;;1.08;100.00
36190;BME280;22232;50.914;13.858;2022-12-07T08:33:02;97331.81;;;1.17;100.00
36190;BME280;22232;50.914;13.858;2022-12-07T08:35:33;97329.34;;;1.30;100.00
36190;BME280;22232;50.914;13.858;2022-12-07T08:38:00;97331.81;;;1.32;100.00
36190;BME280;22232;50.914;13.858;2022-12-07T08:40:29;97327.69;;;1.44;100.00
36190;BME280;22232;50.914;13.858;2022-12-07T08:42:57;97332.97;;;1.44;100.00
36190;BME280;22232;50.914;13.858;2022-12-07T08:45:25;97328.34;;;1.46;100.00
36190;BME280;22232;50.914;13.858;2022-12-07T08:48:07;97333.22;;;1.49;100.00
36190;BME280;22232;50.914;13.858;2022-12-07T08:50:39;97321.22;;;1.62;100.00
36190;BME280;22232;50.914;13.858;2022-12-07T08:53:13;97334.81;;;1.65;100.00
36190;BME280;22232;50.914;13.858;2022-12-07T08:55:41;97330.00;;;1.69;100.00
36190;BME280;22232;50.914;13.858;2022-12-07T08:58:09;97324.91;;;1.67;100.00
36190;BME280;22232;50.914;13.858;2022-12-07T09:00:36;97319.75;;;1.74;100.00
36190;BME280;22232;50.914;13.858;2022-12-07T09:03:04;97316.59;;;1.85;100.00
36190;BME280;22232;50.914;13.858;2022-12-07T09:05:33;97324.56;;;1.92;100.00
36190;BME280;22232;50.914;13.858;2022-12-07T09:08:01;97327.06;;;2.00;100.00
36190;BME280;22232;50.914;13.858;2022-12-07T09:10:29;97323.06;;;2.04;100.00
36190;BME280;22232;50.914;13.858;2022-12-07T09:12:58;97317.16;;;2.23;100.00
36190;BME280;22232;50.914;13.858;2022-12-07T09:15:29;97334.13;;;2.42;100.00
36190;BME280;22232;50.914;13.858;2022-12-07T09:17:57;97318.16;;;2.44;100.00
36190;BME280;22232;50.914;13.858;2022-12-07T09:20:24;97318.28;;;2.64;100.00
36190;BME280;22232;50.914;13.858;2022-12-07T09:22:54;97320.13;;;2.70;100.00
36190;BME280;22232;50.914;13.858;2022-12-07T09:25:21;97320.00;;;2.78;100.00
36190;BME280;22232;50.914;13.858;2022-12-07T09:27:55;97305.66;;;2.87;100.00
36190;BME280;22232;50.914;13.858;2022-12-07T09:30:24;97310.59;;;3.04;100.00
36190;BME280;22232;50.914;13.858;2022-12-07T09:32:56;97304.59;;;3.16;100.00
36190;BME280;22232;50.914;13.858;2022-12-07T09:35:24;97309.13;;;3.29;100.00
36190;BME280;22232;50.914;13.858;2022-12-07T09:37:52;97309.53;;;3.26;100.00
36190;BME280;22232;50.914;13.858;2022-12-07T09:40:21;97315.97;;;3.17;100.00
36190;BME280;22232;50.914;13.858;2022-12-07T09:42:52;97311.63;;;3.03;100.00
36190;BME280;22232;50.914;13.858;2022-12-07T09:45:24;97313.25;;;3.04;100.00
36190;BME280;22232;50.914;13.858;2022-12-07T09:47:52;97313.53;;;3.22;100.00
36190;BME280;22232;50.914;13.858;2022-12-07T09:50:23;97310.50;;;3.25;100.00
36190;BME280;22232;50.914;13.858;2022-12-07T09:52:52;97313.19;;;3.32;100.00
36190;BME280;22232;50.914;13.858;2022-12-07T09:55:30;97312.97;;;3.27;100.00
36190;BME280;22232;50.914;13.858;2022-12-07T09:57:58;97313.53;;;3.22;100.00
36190;BME280;22232;50.914;13.858;2022-12-07T10:00:25;97309.84;;;3.16;100.00
36190;BME280;22232;50.914;13.858;2022-12-07T10:02:57;97302.34;;;3.13;100.00
36190;BME280;22232;50.914;13.858;2022-12-07T10:05:45;97312.56;;;3.23;100.00
36190;BME280;22232;50.914;13.858;2022-12-07T10:08:15;97304.78;;;3.63;100.00
36190;BME280;22232;50.914;13.858;2022-12-07T10:10:50;97305.25;;;3.93;100.00
36190;BME280;22232;50.914;13.858;2022-12-07T10:13:22;97294.88;;;3.85;100.00
36190;BME280;22232;50.914;13.858;2022-12-07T10:16:00;97304.31;;;3.53;100.00
36190;BME280;22232;50.914;13.858;2022-12-07T10:18:38;97304.16;;;3.54;100.00
36190;BME280;22232;50.914;13.858;2022-12-07T10:21:21;97303.72;;;3.51;100.00
36190;BME280;22232;50.914;13.858;2022-12-07T10:24:04;97291.31;;;3.38;100.00
36190;BME280;22232;50.914;13.858;2022-12-07T10:26:35;97289.69;;;3.43;100.00
36190;BME280;22232;50.914;13.858;2022-12-07T10:32:01;97290.56;;;3.57;100.00
36190;BME280;22232;50.914;13.858;2022-12-07T10:34:32;97284.91;;;3.67;100.00
36190;BME280;22232;50.914;13.858;2022-12-07T10:37:16;97274.75;;;3.64;100.00
36190;BME280;22232;50.914;13.858;2022-12-07T10:39:55;97289.75;;;3.50;100.00
36190;BME280;22232;50.914;13.858;2022-12-07T10:42:28;97284.66;;;3.49;100.00
36190;BME280;22232;50.914;13.858;2022-12-07T10:45:16;97285.66;;;3.48;100.00
36190;BME280;22232;50.914;13.858;2022-12-07T11:06:12;97268.06;;;3.68;100.00
36190;BME280;22232;50.914;13.858;2022-12-07T11:11:44;97271.47;;;3.49;100.00
36190;BME280;22232;50.914;13.858;2022-12-07T11:14:21;97263.97;;;3.45;100.00
36190;BME280;22232;50.914;13.858;2022-12-07T11:17:21;97251.00;;;3.51;100.00
36190;BME280;22232;50.914;13.858;2022-12-07T11:20:13;97251.00;;;3.51;100.00
36190;BME280;22232;50.914;13.858;2022-12-07T11:23:21;97242.28;;;3.63;100.00
36190;BME280;22232;50.914;13.858;2022-12-07T11:35:08;97249.63;;;4.01;100.00
36190;BME280;22232;50.914;13.858;2022-12-07T11:37:18;97254.69;;;3.89;100.00
36190;BME280;22232;50.914;13.858;2022-12-07T11:39:51;97241.09;;;3.79;100.00
36190;BME280;22232;50.914;13.858;2022-12-07T11:42:25;97246.38;;;3.66;100.00
36190;BME280;22232;50.914;13.858;2022-12-07T11:45:14;97242.88;;;3.45;100.00
36190;BME280;22232;50.914;13.858;2022-12-07T11:47:48;97242.84;;;3.32;100.00
36190;BME280;22232;50.914;13.858;2022-12-07T11:50:42;97248.63;;;3.08;100.00
36190;BME280;22232;50.914;13.858;2022-12-07T11:58:47;97253.00;;;2.87;100.00
36190;BME280;22232;50.914;13.858;2022-12-07T12:01:35;97242.81;;;2.78;100.00
36190;BME280;22232;50.914;13.858;2022-12-07T12:06:43;97246.25;;;2.78;100.00
36190;BME280;22232;50.914;13.858;2022-12-07T12:09:21;97243.63;;;2.78;100.00
36190;BME280;22232;50.914;13.858;2022-12-07T12:15:35;97243.63;;;2.78;100.00
36190;BME280;22232;50.914;13.858;2022-12-07T12:20:51;97234.59;;;2.94;100.00
36190;BME280;22232;50.914;13.858;2022-12-07T12:23:24;97228.34;;;3.02;100.00
36190;BME280;22232;50.914;13.858;2022-12-07T12:25:57;97228.91;;;2.90;100.00
36190;BME280;22232;50.914;13.858;2022-12-07T12:33:52;97225.44;;;2.83;100.00
36190;BME280;22232;50.914;13.858;2022-12-07T12:36:27;97233.28;;;2.76;100.00
36190;BME280;22232;50.914;13.858;2022-12-07T12:39:19;97224.56;;;2.76;100.00
36190;BME280;22232;50.914;13.858;2022-12-07T12:41:53;97222.75;;;2.76;100.00
36190;BME280;22232;50.914;13.858;2022-12-07T12:47:02;97224.97;;;2.73;100.00
36190;BME280;22232;50.914;13.858;2022-12-07T12:49:41;97217.72;;;2.88;100.00
36190;BME280;22232;50.914;13.858;2022-12-07T12:55:02;97207.13;;;3.23;100.00
36190;BME280;22232;50.914;13.858;2022-12-07T12:57:39;97218.06;;;3.20;100.00
36190;BME280;22232;50.914;13.858;2022-12-07T13:02:50;97231.34;;;2.57;100.00
36190;BME280;22232;50.914;13.858;2022-12-07T13:05:21;97234.50;;;2.39;100.00
36190;BME280;22232;50.914;13.858;2022-12-07T13:07:53;97230.63;;;2.35;100.00
36190;BME280;22232;50.914;13.858;2022-12-07T13:15:56;97232.72;;;2.18;100.00
36190;BME280;22232;50.914;13.858;2022-12-07T13:18:42;97235.97;;;2.20;100.00
36190;BME280;22232;50.914;13.858;2022-12-07T13:26:21;97225.25;;;2.22;100.00
36190;BME280;22232;50.914;13.858;2022-12-07T13:34:01;97230.38;;;2.30;100.00
36190;BME280;22232;50.914;13.858;2022-12-07T13:36:32;97221.31;;;2.39;100.00
36190;BME280;22232;50.914;13.858;2022-12-07T13:39:17;97218.13;;;2.44;100.00
36190;BME280;22232;50.914;13.858;2022-12-07T13:41:51;97209.19;;;2.38;100.00
36190;BME280;22232;50.914;13.858;2022-12-07T13:44:19;97212.47;;;2.47;100.00
36190;BME280;22232;50.914;13.858;2022-12-07T13:47:11;97211.50;;;2.55;100.00
36190;BME280;22232;50.914;13.858;2022-12-07T13:49:52;97217.34;;;2.50;100.00
36190;BME280;22232;50.914;13.858;2022-12-07T13:52:24;97217.53;;;2.48;100.00
36190;BME280;22232;50.914;13.858;2022-12-07T13:55:01;97221.63;;;2.58;100.00
36190;BME280;22232;50.914;13.858;2022-12-07T13:57:32;97222.44;;;2.58;100.00
36190;BME280;22232;50.914;13.858;2022-12-07T14:00:05;97216.38;;;2.58;100.00
36190;BME280;22232;50.914;13.858;2022-12-07T14:02:34;97224.41;;;2.49;100.00
36190;BME280;22232;50.914;13.858;2022-12-07T14:05:15;97228.72;;;2.57;100.00
36190;BME280;22232;50.914;13.858;2022-12-07T14:10:52;97218.00;;;2.59;100.00
36190;BME280;22232;50.914;13.858;2022-12-07T14:13:38;97235.59;;;2.58;100.00
36190;BME280;22232;50.914;13.858;2022-12-07T14:16:30;97235.19;;;2.55;100.00
36190;BME280;22232;50.914;13.858;2022-12-07T14:19:00;97233.59;;;2.60;100.00
36190;BME280;22232;50.914;13.858;2022-12-07T14:21:31;97238.44;;;2.57;100.00
36190;BME280;22232;50.914;13.858;2022-12-07T14:24:19;97238.22;;;2.51;100.00
36190;BME280;22232;50.914;13.858;2022-12-07T14:26:51;97236.09;;;2.40;100.00
36190;BME280;22232;50.914;13.858;2022-12-07T14:29:29;97233.09;;;2.43;100.00
36190;BME280;22232;50.914;13.858;2022-12-07T14:32:11;97228.00;;;2.35;100.00
36190;BME280;22232;50.914;13.858;2022-12-07T14:35:12;97228.00;;;2.35;100.00
36190;BME280;22232;50.914;13.858;2022-12-07T14:37:43;97222.88;;;2.27;100.00
36190;BME280;22232;50.914;13.858;2022-12-07T14:40:23;97218.63;;;2.26;100.00
36190;BME280;22232;50.914;13.858;2022-12-07T14:42:54;97225.88;;;2.24;100.00
36190;BME280;22232;50.914;13.858;2022-12-07T14:45:23;97215.13;;;2.19;100.00
36190;BME280;22232;50.914;13.858;2022-12-07T14:47:51;97222.19;;;2.18;100.00
36190;BME280;22232;50.914;13.858;2022-12-07T14:50:49;97220.53;;;2.11;100.00
36190;BME280;22232;50.914;13.858;2022-12-07T14:53:40;97220.88;;;2.01;100.00
36190;BME280;22232;50.914;13.858;2022-12-07T14:56:09;97220.91;;;2.08;100.00
36190;BME280;22232;50.914;13.858;2022-12-07T14:58:36;97217.91;;;2.11;100.00
36190;BME280;22232;50.914;13.858;2022-12-07T15:01:04;97223.56;;;2.08;100.00